sensor_id;sensor_type;location;lat;lon;timestamp;pressure;altitude;pressure_sealevel;temperature;humidity
72055;BME280;59936;51.490;5.436;2022-09-27T00:00:06;99445.25;;;8.44;100.00
72055;BME280;59936;51.490;5.436;2022-09-27T00:01:07;99446.09;;;8.45;100.00
72055;BME280;59936;51.490;5.436;2022-09-27T00:02:07;99444.41;;;8.44;100.00
72055;BME280;59936;51.490;5.436;2022-09-27T00:03:04;99445.25;;;8.44;100.00
72055;BME280;59936;51.490;5.436;2022-09-27T00:04:02;99448.03;;;8.41;100.00
72055;BME280;59936;51.490;5.436;2022-09-27T00:04:59;99441.72;;;8.45;100.00
72055;BME280;59936;51.490;5.436;2022-09-27T00:07:08;99441.34;;;8.53;100.00
72055;BME280;59936;51.490;5.436;2022-09-27T00:08:07;99437.28;;;8.47;100.00
72055;BME280;59936;51.490;5.436;2022-09-27T00:09:05;99441.56;;;8.48;100.00
72055;BME280;59936;51.490;5.436;2022-09-27T00:10:02;99437.22;;;8.49;100.00
72055;BME280;59936;51.490;5.436;2022-09-27T00:11:02;99437.22;;;8.49;100.00
72055;BME280;59936;51.490;5.436;2022-09-27T00:12:02;99440.78;;;8.46;100.00
72055;BME280;59936;51.490;5.436;2022-09-27T00:13:00;99436.53;;;8.45;100.00
72055;BME280;59936;51.490;5.436;2022-09-27T00:13:59;99440.06;;;8.44;100.00
72055;BME280;59936;51.490;5.436;2022-09-27T00:14:56;99440.72;;;8.48;100.00
72055;BME280;59936;51.490;5.436;2022-09-27T00:15:56;99445.66;;;8.53;100.00
72055;BME280;59936;51.490;5.436;2022-09-27T00:16:57;99439.91;;;8.47;100.00
72055;BME280;59936;51.490;5.436;2022-09-27T00:17:55;99441.56;;;8.48;100.00
72055;BME280;59936;51.490;5.436;2022-09-27T00:18:56;99450.28;;;8.47;100.00
72055;BME280;59936;51.490;5.436;2022-09-27T00:19:58;99446.00;;;8.46;100.00
72055;BME280;59936;51.490;5.436;2022-09-27T00:21:04;99448.59;;;8.46;100.00
72055;BME280;59936;51.490;5.436;2022-09-27T00:22:04;99448.59;;;8.46;100.00
72055;BME280;59936;51.490;5.436;2022-09-27T00:23:02;99449.44;;;8.47;100.00
72055;BME280;59936;51.490;5.436;2022-09-27T00:24:00;99445.91;;;8.48;100.00
72055;BME280;59936;51.490;5.436;2022-09-27T00:24:57;99455.56;;;8.46;100.00
72055;BME280;59936;51.490;5.436;2022-09-27T00:25:58;99452.13;;;8.45;100.00
72055;BME280;59936;51.490;5.436;2022-09-27T00:26:56;99453.13;;;8.43;100.00
72055;BME280;59936;51.490;5.436;2022-09-27T00:27:53;99453.22;;;8.41;100.00
72055;BME280;59936;51.490;5.436;2022-09-27T00:28:51;99456.69;;;8.42;100.00
72055;BME280;59936;51.490;5.436;2022-09-27T00:29:49;99459.84;;;8.47;100.00
72055;BME280;59936;51.490;5.436;2022-09-27T00:30:46;99457.31;;;8.45;100.00
72055;BME280;59936;51.490;5.436;2022-09-27T00:31:45;99462.53;;;8.45;100.00
72055;BME280;59936;51.490;5.436;2022-09-27T00:32:42;99463.53;;;8.43;100.00
72055;BME280;59936;51.490;5.436;2022-09-27T00:33:40;99471.25;;;8.44;100.00
72055;BME280;59936;51.490;5.436;2022-09-27T00:34:38;99479.91;;;8.45;100.00
72055;BME280;59936;51.490;5.436;2022-09-27T00:35:36;99474.59;;;8.46;100.00
72055;BME280;59936;51.490;5.436;2022-09-27T00:36:34;99481.66;;;8.44;100.00
72055;BME280;59936;51.490;5.436;2022-09-27T00:37:31;99488.69;;;8.42;100.00
72055;BME280;59936;51.490;5.436;2022-09-27T00:38:29;99486.84;;;8.44;100.00
72055;BME280;59936;51.490;5.436;2022-09-27T00:39:26;99492.63;;;8.49;100.00
72055;BME280;59936;51.490;5.436;2022-09-27T00:40:24;99468.56;;;8.46;100.00
72055;BME280;59936;51.490;5.436;2022-09-27T00:41:24;99447.44;;;8.36;100.00
72055;BME280;59936;51.490;5.436;2022-09-27T00:42:23;99466.75;;;8.32;100.00
72055;BME280;59936;51.490;5.436;2022-09-27T00:43:22;99472.53;;;8.37;100.00
72055;BME280;59936;51.490;5.436;2022-09-27T00:45:29;99474.47;;;8.33;100.00
72055;BME280;59936;51.490;5.436;2022-09-27T00:46:31;99471.34;;;8.43;100.00
72055;BME280;59936;51.490;5.436;2022-09-27T00:47:39;99464.63;;;8.38;100.00
72055;BME280;59936;51.490;5.436;2022-09-27T00:48:41;99470.59;;;8.41;100.00
72055;BME280;59936;51.490;5.436;2022-09-27T00:50:57;99464.63;;;8.38;100.00
72055;BME280;59936;51.490;5.436;2022-09-27T00:52:01;99468.25;;;8.36;100.00
72055;BME280;59936;51.490;5.436;2022-09-27T00:54:31;99463.97;;;8.35;100.00
72055;BME280;59936;51.490;5.436;2022-09-27T00:55:39;99468.25;;;8.36;100.00
72055;BME280;59936;51.490;5.436;2022-09-27T00:56:41;99465.72;;;8.34;100.00
72055;BME280;59936;51.490;5.436;2022-09-27T00:57:41;99475.28;;;8.34;100.00
72055;BME280;59936;51.490;5.436;2022-09-27T00:58:42;99465.06;;;8.31;100.00
72055;BME280;59936;51.490;5.436;2022-09-27T00:59:50;99465.06;;;8.31;100.00
72055;BME280;59936;51.490;5.436;2022-09-27T01:00:55;99465.97;;;8.30;100.00
72055;BME280;59936;51.490;5.436;2022-09-27T01:01:57;99465.06;;;8.31;100.00
72055;BME280;59936;51.490;5.436;2022-09-27T01:02:55;99466.75;;;8.32;100.00
72055;BME280;59936;51.490;5.436;2022-09-27T01:04:08;99465.97;;;8.30;100.00
72055;BME280;59936;51.490;5.436;2022-09-27T01:05:09;99469.44;;;8.30;100.00
72055;BME280;59936;51.490;5.436;2022-09-27T01:06:09;99461.72;;;8.29;100.00
72055;BME280;59936;51.490;5.436;2022-09-27T01:07:08;99463.28;;;8.31;100.00
72055;BME280;59936;51.490;5.436;2022-09-27T01:08:05;99466.06;;;8.28;100.00
72055;BME280;59936;51.490;5.436;2022-09-27T01:09:08;99465.06;;;8.31;100.00
72055;BME280;59936;51.490;5.436;2022-09-27T01:10:08;99465.97;;;8.30;100.00
72055;BME280;59936;51.490;5.436;2022-09-27T01:13:06;99470.59;;;8.24;100.00
72055;BME280;59936;51.490;5.436;2022-09-27T01:16:00;99474.44;;;8.17;100.00
72055;BME280;59936;51.490;5.436;2022-09-27T01:18:38;99476.31;;;8.15;100.00
72055;BME280;59936;51.490;5.436;2022-09-27T01:24:53;99469.59;;;8.11;100.00
72055;BME280;59936;51.490;5.436;2022-09-27T01:28:01;99464.72;;;8.05;100.00
72055;BME280;59936;51.490;5.436;2022-09-27T01:29:21;99469.16;;;8.03;100.00
72055;BME280;59936;51.490;5.436;2022-09-27T01:30:42;99470.06;;;8.02;100.00
72055;BME280;59936;51.490;5.436;2022-09-27T01:32:04;99475.97;;;8.05;100.00
72055;BME280;59936;51.490;5.436;2022-09-27T01:33:28;99474.34;;;8.03;100.00
72055;BME280;59936;51.490;5.436;2022-09-27T01:34:51;99474.53;;;7.99;100.00
72055;BME280;59936;51.490;5.436;2022-09-27T01:36:10;99479.66;;;8.01;100.00
72055;BME280;59936;51.490;5.436;2022-09-27T01:37:35;99475.44;;;7.98;100.00
72055;BME280;59936;51.490;5.436;2022-09-27T01:43:03;99477.28;;;7.96;100.00
72055;BME280;59936;51.490;5.436;2022-09-27T01:44:36;99491.94;;;7.97;100.00
72055;BME280;59936;51.490;5.436;2022-09-27T01:45:55;99492.88;;;7.96;100.00
72055;BME280;59936;51.490;5.436;2022-09-27T01:47:03;99483.31;;;7.97;100.00
72055;BME280;59936;51.490;5.436;2022-09-27T01:48:17;99484.59;;;7.90;100.00
72055;BME280;59936;51.490;5.436;2022-09-27T01:49:25;99475.94;;;7.89;100.00
72055;BME280;59936;51.490;5.436;2022-09-27T01:50:37;99486.31;;;7.89;100.00
72055;BME280;59936;51.490;5.436;2022-09-27T01:51:46;99494.78;;;7.93;100.00
72055;BME280;59936;51.490;5.436;2022-09-27T01:52:54;99493.19;;;7.90;100.00
72055;BME280;59936;51.490;5.436;2022-09-27T01:54:00;99494.28;;;7.86;100.00
72055;BME280;59936;51.490;5.436;2022-09-27T01:55:02;99491.69;;;7.86;100.00
72055;BME280;59936;51.490;5.436;2022-09-27T01:56:07;99490.94;;;7.84;100.00
72055;BME280;59936;51.490;5.436;2022-09-27T01:57:12;99488.16;;;7.87;100.00
72055;BME280;59936;51.490;5.436;2022-09-27T01:58:21;99491.84;;;7.83;100.00
72055;BME280;59936;51.490;5.436;2022-09-27T01:59:49;99492.03;;;7.80;100.00
72055;BME280;59936;51.490;5.436;2022-09-27T02:00:52;99504.06;;;7.81;100.00
72055;BME280;59936;51.490;5.436;2022-09-27T02:01:52;99509.28;;;7.81;100.00
72055;BME280;59936;51.490;5.436;2022-09-27T02:03:05;99512.63;;;7.83;100.00
72055;BME280;59936;51.490;5.436;2022-09-27T02:04:12;99504.81;;;7.83;100.00
72055;BME280;59936;51.490;5.436;2022-09-27T02:05:17;99496.28;;;7.81;100.00
72055;BME280;59936;51.490;5.436;2022-09-27T02:06:24;99494.63;;;7.80;100.00
72055;BME280;59936;51.490;5.436;2022-09-27T02:07:44;99490.16;;;7.82;100.00
72055;BME280;59936;51.490;5.436;2022-09-27T02:08:58;99487.72;;;7.79;100.00
72055;BME280;59936;51.490;5.436;2022-09-27T02:10:08;99490.31;;;7.79;100.00
72055;BME280;59936;51.490;5.436;2022-09-27T02:11:16;99489.72;;;7.73;100.00
72055;BME280;59936;51.490;5.436;2022-09-27T02:12:18;99484.69;;;7.70;100.00
72055;BME280;59936;51.490;5.436;2022-09-27T02:13:24;99480.84;;;7.78;100.00
72055;BME280;59936;51.490;5.436;2022-09-27T02:14:49;99496.78;;;7.71;100.00
72055;BME280;59936;51.490;5.436;2022-09-27T02:19:55;99499.19;;;7.75;100.00
72055;BME280;59936;51.490;5.436;2022-09-27T02:20:56;99504.56;;;7.71;100.00
72055;BME280;59936;51.490;5.436;2022-09-27T02:22:16;99501.03;;;7.72;100.00
72055;BME280;59936;51.490;5.436;2022-09-27T02:23:39;99499.53;;;7.68;100.00
72055;BME280;59936;51.490;5.436;2022-09-27T02:24:52;99503.03;;;7.67;100.00
72055;BME280;59936;51.490;5.436;2022-09-27T02:26:00;99498.75;;;7.66;100.00
72055;BME280;59936;51.490;5.436;2022-09-27T02:27:19;99494.50;;;7.65;100.00
72055;BME280;59936;51.490;5.436;2022-09-27T02:28:37;99504.88;;;7.65;100.00
72055;BME280;59936;51.490;5.436;2022-09-27T02:29:48;99494.34;;;7.68;100.00
72055;BME280;59936;51.490;5.436;2022-09-27T02:30:53;99498.00;;;7.64;100.00
72055;BME280;59936;51.490;5.436;2022-09-27T02:31:51;99492.81;;;7.64;100.00
72055;BME280;59936;51.490;5.436;2022-09-27T02:32:50;99491.66;;;7.70;100.00
72055;BME280;59936;51.490;5.436;2022-09-27T02:33:53;99491.75;;;7.68;100.00
72055;BME280;59936;51.490;5.436;2022-09-27T02:34:58;99496.94;;;7.68;100.00
72055;BME280;59936;51.490;5.436;2022-09-27T02:35:58;99496.00;;;7.69;100.00
72055;BME280;59936;51.490;5.436;2022-09-27T02:36:56;99494.50;;;7.65;100.00
72055;BME280;59936;51.490;5.436;2022-09-27T02:37:54;99496.16;;;7.66;100.00
72055;BME280;59936;51.490;5.436;2022-09-27T02:38:52;99494.72;;;7.60;100.00
72055;BME280;59936;51.490;5.436;2022-09-27T02:39:50;99505.03;;;7.62;100.00
72055;BME280;59936;51.490;5.436;2022-09-27T02:40:47;99509.47;;;7.60;100.00
72055;BME280;59936;51.490;5.436;2022-09-27T02:41:45;99510.22;;;7.62;100.00
72055;BME280;59936;51.490;5.436;2022-09-27T02:42:43;99521.69;;;7.58;100.00
72055;BME280;59936;51.490;5.436;2022-09-27T02:43:55;99520.75;;;7.59;100.00
72055;BME280;59936;51.490;5.436;2022-09-27T02:45:07;99521.75;;;7.56;100.00
72055;BME280;59936;51.490;5.436;2022-09-27T02:51:32;99508.47;;;7.45;100.00
72055;BME280;59936;51.490;5.436;2022-09-27T02:53:25;99502.75;;;7.38;100.00
72055;BME280;59936;51.490;5.436;2022-09-27T02:54:49;99503.00;;;7.33;100.00
72055;BME280;59936;51.490;5.436;2022-09-27T02:56:09;99503.16;;;7.30;100.00
72055;BME280;59936;51.490;5.436;2022-09-27T02:59:19;99503.25;;;7.29;100.00
72055;BME280;59936;51.490;5.436;2022-09-27T03:00:51;99500.03;;;7.24;100.00
72055;BME280;59936;51.490;5.436;2022-09-27T03:04:59;99496.75;;;7.20;100.00
72055;BME280;59936;51.490;5.436;2022-09-27T03:06:10;99499.41;;;7.18;100.00
72055;BME280;59936;51.490;5.436;2022-09-27T03:07:13;99500.34;;;7.17;100.00
72055;BME280;59936;51.490;5.436;2022-09-27T03:08:11;99508.88;;;7.19;100.00
72055;BME280;59936;51.490;5.436;2022-09-27T03:09:21;99505.38;;;7.20;100.00
72055;BME280;59936;51.490;5.436;2022-09-27T03:10:24;99508.72;;;7.22;100.00
72055;BME280;59936;51.490;5.436;2022-09-27T03:11:23;99504.59;;;7.18;100.00
72055;BME280;59936;51.490;5.436;2022-09-27T03:12:21;99507.19;;;7.18;100.00
72055;BME280;59936;51.490;5.436;2022-09-27T03:13:22;99510.72;;;7.17;100.00
72055;BME280;59936;51.490;5.436;2022-09-27T03:14:19;99503.09;;;7.14;100.00
72055;BME280;59936;51.490;5.436;2022-09-27T03:15:17;99503.09;;;7.14;100.00
72055;BME280;59936;51.490;5.436;2022-09-27T03:16:15;99505.69;;;7.14;100.00
72055;BME280;59936;51.490;5.436;2022-09-27T03:17:12;99500.50;;;7.14;100.00
72055;BME280;59936;51.490;5.436;2022-09-27T03:18:10;99499.56;;;7.15;100.00
72055;BME280;59936;51.490;5.436;2022-09-27T03:19:08;99499.72;;;7.12;100.00
72055;BME280;59936;51.490;5.436;2022-09-27T03:20:06;99498.81;;;7.13;100.00
72055;BME280;59936;51.490;5.436;2022-09-27T03:21:05;99496.28;;;7.12;100.00
72055;BME280;59936;51.490;5.436;2022-09-27T03:22:02;99500.34;;;7.17;100.00
72055;BME280;59936;51.490;5.436;2022-09-27T03:23:00;99496.97;;;7.15;100.00
72055;BME280;59936;51.490;5.436;2022-09-27T03:23:57;99501.94;;;7.20;100.00
72055;BME280;59936;51.490;5.436;2022-09-27T03:24:58;99508.88;;;7.19;100.00
72055;BME280;59936;51.490;5.436;2022-09-27T03:25:58;99508.88;;;7.19;100.00
72055;BME280;59936;51.490;5.436;2022-09-27T03:26:56;99505.38;;;7.20;100.00
72055;BME280;59936;51.490;5.436;2022-09-27T03:27:53;99505.53;;;7.17;100.00
72055;BME280;59936;51.490;5.436;2022-09-27T03:28:51;99511.47;;;7.19;100.00
72055;BME280;59936;51.490;5.436;2022-09-27T03:29:49;99518.34;;;7.20;100.00
72055;BME280;59936;51.490;5.436;2022-09-27T03:30:47;99516.44;;;7.24;100.00
72055;BME280;59936;51.490;5.436;2022-09-27T03:31:44;99517.88;;;7.30;100.00
72055;BME280;59936;51.490;5.436;2022-09-27T03:32:43;99510.94;;;7.30;100.00
72055;BME280;59936;51.490;5.436;2022-09-27T03:33:41;99511.78;;;7.31;100.00
72055;BME280;59936;51.490;5.436;2022-09-27T03:34:38;99517.13;;;7.28;100.00
72055;BME280;59936;51.490;5.436;2022-09-27T03:35:37;99517.13;;;7.28;100.00
72055;BME280;59936;51.490;5.436;2022-09-27T03:36:35;99515.44;;;7.27;100.00
72055;BME280;59936;51.490;5.436;2022-09-27T03:37:32;99505.91;;;7.27;100.00
72055;BME280;59936;51.490;5.436;2022-09-27T03:38:30;99510.09;;;7.30;100.00
72055;BME280;59936;51.490;5.436;2022-09-27T03:39:27;99513.22;;;7.37;100.00
72055;BME280;59936;51.490;5.436;2022-09-27T03:40:24;99520.78;;;7.41;100.00
72055;BME280;59936;51.490;5.436;2022-09-27T03:41:22;99519.56;;;7.49;100.00
72055;BME280;59936;51.490;5.436;2022-09-27T03:42:21;99521.38;;;7.46;100.00
72055;BME280;59936;51.490;5.436;2022-09-27T03:43:19;99519.72;;;7.45;100.00
72055;BME280;59936;51.490;5.436;2022-09-27T03:44:16;99511.94;;;7.45;100.00
72055;BME280;59936;51.490;5.436;2022-09-27T03:45:14;99507.75;;;7.43;100.00
72055;BME280;59936;51.490;5.436;2022-09-27T03:46:12;99518.03;;;7.44;100.00
72055;BME280;59936;51.490;5.436;2022-09-27T03:47:10;99520.78;;;7.41;100.00
72055;BME280;59936;51.490;5.436;2022-09-27T03:48:07;99523.22;;;7.44;100.00
72055;BME280;59936;51.490;5.436;2022-09-27T03:49:05;99520.56;;;7.46;100.00
72055;BME280;59936;51.490;5.436;2022-09-27T03:50:03;99519.72;;;7.45;100.00
72055;BME280;59936;51.490;5.436;2022-09-27T03:51:00;99527.50;;;7.45;100.00
72055;BME280;59936;51.490;5.436;2022-09-27T03:51:58;99531.78;;;7.46;100.00
72055;BME280;59936;51.490;5.436;2022-09-27T03:52:55;99528.25;;;7.47;100.00
72055;BME280;59936;51.490;5.436;2022-09-27T03:53:53;99531.63;;;7.50;100.00
72055;BME280;59936;51.490;5.436;2022-09-27T03:54:50;99526.50;;;7.48;100.00
72055;BME280;59936;51.490;5.436;2022-09-27T03:55:48;99531.78;;;7.46;100.00
72055;BME280;59936;51.490;5.436;2022-09-27T03:56:55;99536.81;;;7.50;100.00
72055;BME280;59936;51.490;5.436;2022-09-27T03:57:52;99541.16;;;7.49;100.00
72055;BME280;59936;51.490;5.436;2022-09-27T03:58:50;99540.84;;;7.55;100.00
72055;BME280;59936;51.490;5.436;2022-09-27T03:59:47;99542.44;;;7.58;100.00
72055;BME280;59936;51.490;5.436;2022-09-27T04:00:48;99550.56;;;7.52;100.00
72055;BME280;59936;51.490;5.436;2022-09-27T04:01:46;99546.28;;;7.51;100.00
72055;BME280;59936;51.490;5.436;2022-09-27T04:02:43;99552.38;;;7.50;100.00
72055;BME280;59936;51.490;5.436;2022-09-27T04:03:41;99557.59;;;7.50;100.00
72055;BME280;59936;51.490;5.436;2022-09-27T04:04:39;99548.06;;;7.50;100.00
72055;BME280;59936;51.490;5.436;2022-09-27T04:05:36;99556.66;;;7.51;100.00
72055;BME280;59936;51.490;5.436;2022-09-27T04:06:34;99560.03;;;7.53;100.00
72055;BME280;59936;51.490;5.436;2022-09-27T04:07:31;99559.09;;;7.54;100.00
72055;BME280;59936;51.490;5.436;2022-09-27T04:08:29;99562.78;;;7.50;100.00
72055;BME280;59936;51.490;5.436;2022-09-27T04:09:26;99576.34;;;7.55;100.00
72055;BME280;59936;51.490;5.436;2022-09-27T04:10:24;99571.22;;;7.53;100.00
72055;BME280;59936;51.490;5.436;2022-09-27T04:11:22;99573.16;;;7.50;100.00
72055;BME280;59936;51.490;5.436;2022-09-27T04:12:19;99563.84;;;7.45;100.00
72055;BME280;59936;51.490;5.436;2022-09-27T04:13:17;99571.47;;;7.49;100.00
72055;BME280;59936;51.490;5.436;2022-09-27T04:14:14;99563.63;;;7.50;100.00
72055;BME280;59936;51.490;5.436;2022-09-27T04:15:12;99562.91;;;7.46;100.00
72055;BME280;59936;51.490;5.436;2022-09-27T04:16:09;99565.50;;;7.46;100.00
72055;BME280;59936;51.490;5.436;2022-09-27T04:17:07;99569.03;;;7.45;100.00
72055;BME280;59936;51.490;5.436;2022-09-27T04:18:05;99557.59;;;7.50;100.00
72055;BME280;59936;51.490;5.436;2022-09-27T04:19:02;99559.25;;;7.51;100.00
72055;BME280;59936;51.490;5.436;2022-09-27T04:20:00;99556.66;;;7.51;100.00
72055;BME280;59936;51.490;5.436;2022-09-27T04:20:59;99557.59;;;7.50;100.00
72055;BME280;59936;51.490;5.436;2022-09-27T04:21:56;99562.16;;;7.44;100.00
72055;BME280;59936;51.490;5.436;2022-09-27T04:22:54;99554.22;;;7.47;100.00
72055;BME280;59936;51.490;5.436;2022-09-27T04:23:51;99557.81;;;7.45;100.00
72055;BME280;59936;51.490;5.436;2022-09-27T04:24:49;99549.00;;;7.47;100.00
72055;BME280;59936;51.490;5.436;2022-09-27T04:25:46;99552.69;;;7.43;100.00
72055;BME280;59936;51.490;5.436;2022-09-27T04:26:44;99544.00;;;7.44;100.00
72055;BME280;59936;51.490;5.436;2022-09-27T04:27:45;99550.78;;;7.47;100.00
72055;BME280;59936;51.490;5.436;2022-09-27T04:28:43;99544.00;;;7.44;100.00
72055;BME280;59936;51.490;5.436;2022-09-27T04:29:41;99536.97;;;7.46;100.00
72055;BME280;59936;51.490;5.436;2022-09-27T04:30:41;99539.09;;;7.38;100.00
72055;BME280;59936;51.490;5.436;2022-09-27T04:31:38;99536.59;;;7.37;100.00
72055;BME280;59936;51.490;5.436;2022-09-27T04:32:43;99535.75;;;7.36;100.00
72055;BME280;59936;51.490;5.436;2022-09-27T04:33:41;99528.88;;;7.35;100.00
72055;BME280;59936;51.490;5.436;2022-09-27T04:34:38;99519.28;;;7.37;100.00
72055;BME280;59936;51.490;5.436;2022-09-27T04:35:55;99527.19;;;7.34;100.00
72055;BME280;59936;51.490;5.436;2022-09-27T04:37:11;99528.88;;;7.35;100.00
72055;BME280;59936;51.490;5.436;2022-09-27T04:38:08;99517.75;;;7.33;100.00
72055;BME280;59936;51.490;5.436;2022-09-27T04:39:07;99525.59;;;7.31;100.00
72055;BME280;59936;51.490;5.436;2022-09-27T04:40:06;99523.00;;;7.31;100.00
72055;BME280;59936;51.490;5.436;2022-09-27T04:41:04;99524.91;;;7.28;100.00
72055;BME280;59936;51.490;5.436;2022-09-27T04:42:01;99532.69;;;7.28;100.00
72055;BME280;59936;51.490;5.436;2022-09-27T04:43:00;99532.84;;;7.25;100.00
72055;BME280;59936;51.490;5.436;2022-09-27T04:44:00;99529.34;;;7.26;100.00
72055;BME280;59936;51.490;5.436;2022-09-27T04:44:58;99526.88;;;7.22;100.00
72055;BME280;59936;51.490;5.436;2022-09-27T04:45:55;99533.00;;;7.21;100.00
72055;BME280;59936;51.490;5.436;2022-09-27T04:46:52;99528.63;;;7.22;100.00
72055;BME280;59936;51.490;5.436;2022-09-27T04:47:50;99522.63;;;7.21;100.00
72055;BME280;59936;51.490;5.436;2022-09-27T04:48:47;99524.28;;;7.22;100.00
72055;BME280;59936;51.490;5.436;2022-09-27T04:49:46;99529.72;;;7.18;100.00
72055;BME280;59936;51.490;5.436;2022-09-27T04:50:44;99530.63;;;7.17;100.00
72055;BME280;59936;51.490;5.436;2022-09-27T04:51:42;99536.53;;;7.20;100.00
72055;BME280;59936;51.490;5.436;2022-09-27T04:52:39;99535.66;;;7.20;100.00
72055;BME280;59936;51.490;5.436;2022-09-27T04:53:38;99526.28;;;7.17;100.00
72055;BME280;59936;51.490;5.436;2022-09-27T04:54:35;99527.28;;;7.15;100.00
72055;BME280;59936;51.490;5.436;2022-09-27T04:55:34;99529.88;;;7.15;100.00
72055;BME280;59936;51.490;5.436;2022-09-27T04:56:32;99529.81;;;7.16;100.00
72055;BME280;59936;51.490;5.436;2022-09-27T04:57:29;99535.00;;;7.16;100.00
72055;BME280;59936;51.490;5.436;2022-09-27T04:58:27;99532.47;;;7.15;100.00
72055;BME280;59936;51.490;5.436;2022-09-27T04:59:25;99540.19;;;7.16;100.00
72055;BME280;59936;51.490;5.436;2022-09-27T05:00:23;99538.63;;;7.12;100.00
72055;BME280;59936;51.490;5.436;2022-09-27T05:01:25;99543.69;;;7.15;100.00
72055;BME280;59936;51.490;5.436;2022-09-27T05:02:22;99541.78;;;7.19;100.00
72055;BME280;59936;51.490;5.436;2022-09-27T05:03:21;99545.53;;;7.13;100.00
72055;BME280;59936;51.490;5.436;2022-09-27T05:04:18;99546.13;;;7.18;100.00
72055;BME280;59936;51.490;5.436;2022-09-27T05:05:18;99553.75;;;7.21;100.00
72055;BME280;59936;51.490;5.436;2022-09-27T05:06:16;99553.91;;;7.18;100.00
72055;BME280;59936;51.490;5.436;2022-09-27T05:07:13;99551.09;;;7.23;100.00
72055;BME280;59936;51.490;5.436;2022-09-27T05:08:11;99552.84;;;7.22;100.00
72055;BME280;59936;51.490;5.436;2022-09-27T05:09:08;99557.44;;;7.17;100.00
72055;BME280;59936;51.490;5.436;2022-09-27T05:10:07;99564.44;;;7.15;100.00
72055;BME280;59936;51.490;5.436;2022-09-27T05:11:05;99564.44;;;7.15;100.00
72055;BME280;59936;51.490;5.436;2022-09-27T05:12:03;99568.47;;;7.21;100.00
72055;BME280;59936;51.490;5.436;2022-09-27T05:13:03;99564.97;;;7.22;100.00
72055;BME280;59936;51.490;5.436;2022-09-27T05:14:01;99576.06;;;7.26;100.00
72055;BME280;59936;51.490;5.436;2022-09-27T05:14:58;99578.13;;;7.19;100.00
72055;BME280;59936;51.490;5.436;2022-09-27T05:16:01;99578.19;;;7.17;100.00
72055;BME280;59936;51.490;5.436;2022-09-27T05:17:02;99571.00;;;7.22;100.00
72055;BME280;59936;51.490;5.436;2022-09-27T05:17:59;99570.25;;;7.20;100.00
72055;BME280;59936;51.490;5.436;2022-09-27T05:18:57;99571.16;;;7.19;100.00
72055;BME280;59936;51.490;5.436;2022-09-27T05:19:54;99567.66;;;7.20;100.00
72055;BME280;59936;51.490;5.436;2022-09-27T05:20:52;99565.06;;;7.20;100.00
72055;BME280;59936;51.490;5.436;2022-09-27T05:21:49;99560.78;;;7.19;100.00
72055;BME280;59936;51.490;5.436;2022-09-27T05:22:47;99565.13;;;7.19;100.00
72055;BME280;59936;51.490;5.436;2022-09-27T05:23:44;99571.31;;;7.16;100.00
72055;BME280;59936;51.490;5.436;2022-09-27T05:24:41;99565.34;;;7.14;100.00
72055;BME280;59936;51.490;5.436;2022-09-27T05:25:39;99572.00;;;7.20;100.00
72055;BME280;59936;51.490;5.436;2022-09-27T05:26:36;99571.31;;;7.16;100.00
72055;BME280;59936;51.490;5.436;2022-09-27T05:27:34;99575.72;;;7.14;100.00
72055;BME280;59936;51.490;5.436;2022-09-27T05:28:31;99568.81;;;7.15;100.00
72055;BME280;59936;51.490;5.436;2022-09-27T05:29:34;99569.75;;;7.12;100.00
72055;BME280;59936;51.490;5.436;2022-09-27T05:30:32;99563.69;;;7.13;100.00
72055;BME280;59936;51.490;5.436;2022-09-27T05:31:29;99562.91;;;7.11;100.00
72055;BME280;59936;51.490;5.436;2022-09-27T05:32:28;99562.91;;;7.11;100.00
72055;BME280;59936;51.490;5.436;2022-09-27T05:33:28;99558.56;;;7.12;100.00
72055;BME280;59936;51.490;5.436;2022-09-27T05:34:25;99557.72;;;7.11;100.00
72055;BME280;59936;51.490;5.436;2022-09-27T05:35:23;99555.38;;;7.06;100.00
72055;BME280;59936;51.490;5.436;2022-09-27T05:36:20;99560.38;;;7.09;100.00
72055;BME280;59936;51.490;5.436;2022-09-27T05:37:19;99559.38;;;7.12;100.00
72055;BME280;59936;51.490;5.436;2022-09-27T05:38:17;99559.56;;;7.09;100.00
72055;BME280;59936;51.490;5.436;2022-09-27T05:39:15;99571.59;;;7.10;100.00
72055;BME280;59936;51.490;5.436;2022-09-27T05:40:13;99568.09;;;7.11;100.00
72055;BME280;59936;51.490;5.436;2022-09-27T05:41:10;99564.88;;;7.06;100.00
72055;BME280;59936;51.490;5.436;2022-09-27T05:42:08;99563.22;;;7.05;100.00
72055;BME280;59936;51.490;5.436;2022-09-27T05:43:06;99558.91;;;7.04;100.00
72055;BME280;59936;51.490;5.436;2022-09-27T05:44:03;99559.56;;;7.09;100.00
72055;BME280;59936;51.490;5.436;2022-09-27T05:45:02;99562.38;;;7.04;100.00
72055;BME280;59936;51.490;5.436;2022-09-27T05:45:59;99567.47;;;7.06;100.00
72055;BME280;59936;51.490;5.436;2022-09-27T05:47:00;99557.84;;;7.08;100.00
72055;BME280;59936;51.490;5.436;2022-09-27T05:48:01;99560.38;;;7.09;100.00
72055;BME280;59936;51.490;5.436;2022-09-27T05:48:59;99559.69;;;7.06;100.00
72055;BME280;59936;51.490;5.436;2022-09-27T05:49:57;99564.88;;;7.06;100.00
72055;BME280;59936;51.490;5.436;2022-09-27T05:50:57;99565.94;;;7.02;100.00
72055;BME280;59936;51.490;5.436;2022-09-27T05:51:55;99565.81;;;7.05;100.00
72055;BME280;59936;51.490;5.436;2022-09-27T05:52:53;99567.34;;;7.09;100.00
72055;BME280;59936;51.490;5.436;2022-09-27T05:53:50;99569.09;;;7.08;100.00
72055;BME280;59936;51.490;5.436;2022-09-27T05:54:48;99570.22;;;7.03;100.00
72055;BME280;59936;51.490;5.436;2022-09-27T05:55:45;99568.53;;;7.02;100.00
72055;BME280;59936;51.490;5.436;2022-09-27T05:56:43;99574.34;;;7.07;100.00
72055;BME280;59936;51.490;5.436;2022-09-27T05:57:40;99571.00;;;7.05;100.00
72055;BME280;59936;51.490;5.436;2022-09-27T05:58:38;99564.97;;;7.04;100.00
72055;BME280;59936;51.490;5.436;2022-09-27T05:59:35;99570.16;;;7.04;100.00
72055;BME280;59936;51.490;5.436;2022-09-27T06:00:33;99573.41;;;7.08;100.00
72055;BME280;59936;51.490;5.436;2022-09-27T06:01:31;99573.28;;;7.11;100.00